sensor_id;sensor_type;location;lat;lon;timestamp;pressure;altitude;pressure_sealevel;temperature;humidity
4972;BME280;2501;51.214;6.768;2023-04-26T00:00:13;101598.59;;;4.82;77.64
4972;BME280;2501;51.214;6.768;2023-04-26T00:02:42;101616.06;;;4.84;77.92
4972;BME280;2501;51.214;6.768;2023-04-26T00:05:13;101602.84;;;4.80;77.77
4972;BME280;2501;51.214;6.768;2023-04-26T00:07:43;101604.56;;;4.79;78.10
4972;BME280;2501;51.214;6.768;2023-04-26T00:10:14;101604.03;;;4.88;78.00
4972;BME280;2501;51.214;6.768;2023-04-26T00:12:43;101609.16;;;4.66;78.22
4972;BME280;2501;51.214;6.768;2023-04-26T00:15:11;101610.13;;;4.88;78.23
4972;BME280;2501;51.214;6.768;2023-04-26T00:17:40;101606.91;;;4.94;78.32
4972;BME280;2501;51.214;6.768;2023-04-26T00:20:09;101603.00;;;4.83;78.64
4972;BME280;2501;51.214;6.768;2023-04-26T00:22:41;101603.53;;;4.76;79.28
4972;BME280;2501;51.214;6.768;2023-04-26T00:25:10;101600.50;;;4.65;79.51
4972;BME280;2501;51.214;6.768;2023-04-26T00:27:38;101600.94;;;4.76;79.95
4972;BME280;2501;51.214;6.768;2023-04-26T00:30:08;101592.44;;;4.80;79.90
4972;BME280;2501;51.214;6.768;2023-04-26T00:32:36;101596.69;;;4.78;79.92
4972;BME280;2501;51.214;6.768;2023-04-26T00:35:05;101593.44;;;4.63;80.35
4972;BME280;2501;51.214;6.768;2023-04-26T00:37:34;101594.19;;;4.60;81.02
4972;BME280;2501;51.214;6.768;2023-04-26T00:40:06;101585.22;;;4.53;81.29
4972;BME280;2501;51.214;6.768;2023-04-26T00:42:34;101585.94;;;4.49;81.75
4972;BME280;2501;51.214;6.768;2023-04-26T00:45:04;101588.28;;;4.43;81.80
4972;BME280;2501;51.214;6.768;2023-04-26T00:47:33;101586.84;;;4.50;82.15
4972;BME280;2501;51.214;6.768;2023-04-26T00:50:01;101591.00;;;4.46;82.64
4972;BME280;2501;51.214;6.768;2023-04-26T00:52:30;101584.00;;;4.65;82.56
4972;BME280;2501;51.214;6.768;2023-04-26T00:54:59;101584.84;;;4.44;83.04
4972;BME280;2501;51.214;6.768;2023-04-26T00:57:30;101583.66;;;4.57;82.69
4972;BME280;2501;51.214;6.768;2023-04-26T00:59:59;101585.94;;;4.49;82.49
4972;BME280;2501;51.214;6.768;2023-04-26T01:02:28;101589.16;;;4.44;82.75
4972;BME280;2501;51.214;6.768;2023-04-26T01:04:56;101592.63;;;4.44;82.85
4972;BME280;2501;51.214;6.768;2023-04-26T01:07:25;101594.88;;;4.37;82.60
4972;BME280;2501;51.214;6.768;2023-04-26T01:09:54;101588.94;;;4.39;82.68
4972;BME280;2501;51.214;6.768;2023-04-26T01:12:24;101597.47;;;4.37;82.83
4972;BME280;2501;51.214;6.768;2023-04-26T01:14:56;101602.59;;;4.35;82.87
4972;BME280;2501;51.214;6.768;2023-04-26T01:17:24;101600.66;;;4.30;82.50
4972;BME280;2501;51.214;6.768;2023-04-26T01:19:53;101601.63;;;4.32;82.81
4972;BME280;2501;51.214;6.768;2023-04-26T01:22:21;101605.03;;;4.31;82.96
4972;BME280;2501;51.214;6.768;2023-04-26T01:24:53;101610.28;;;4.32;83.19
4972;BME280;2501;51.214;6.768;2023-04-26T01:27:22;101602.44;;;4.31;83.41
4972;BME280;2501;51.214;6.768;2023-04-26T01:29:51;101605.78;;;4.28;83.23
4972;BME280;2501;51.214;6.768;2023-04-26T01:32:19;101606.81;;;4.32;83.30
4972;BME280;2501;51.214;6.768;2023-04-26T01:34:48;101610.28;;;4.32;83.73
4972;BME280;2501;51.214;6.768;2023-04-26T01:37:16;101601.63;;;4.32;83.80
4972;BME280;2501;51.214;6.768;2023-04-26T01:39:45;101601.63;;;4.32;84.05
4972;BME280;2501;51.214;6.768;2023-04-26T01:42:16;101603.38;;;4.33;84.23
4972;BME280;2501;51.214;6.768;2023-04-26T01:44:44;101600.97;;;4.37;84.47
4972;BME280;2501;51.214;6.768;2023-04-26T01:47:13;101602.47;;;4.51;83.85
4972;BME280;2501;51.214;6.768;2023-04-26T01:49:41;101601.31;;;4.45;83.48
4972;BME280;2501;51.214;6.768;2023-04-26T01:52:10;101591.47;;;4.18;83.42
4972;BME280;2501;51.214;6.768;2023-04-26T01:54:38;101592.06;;;4.51;83.74
4972;BME280;2501;51.214;6.768;2023-04-26T01:57:06;101596.06;;;4.05;83.95
4972;BME280;2501;51.214;6.768;2023-04-26T01:59:37;101600.78;;;4.33;84.27
4972;BME280;2501;51.214;6.768;2023-04-26T02:02:06;101598.59;;;4.23;83.91
4972;BME280;2501;51.214;6.768;2023-04-26T02:04:35;101601.78;;;4.17;84.42
4972;BME280;2501;51.214;6.768;2023-04-26T02:07:03;101591.22;;;4.12;84.44
4972;BME280;2501;51.214;6.768;2023-04-26T02:09:31;101602.19;;;4.07;84.47
4972;BME280;2501;51.214;6.768;2023-04-26T02:12:00;101603.50;;;3.97;85.09
4972;BME280;2501;51.214;6.768;2023-04-26T02:14:28;101594.59;;;3.92;85.39
4972;BME280;2501;51.214;6.768;2023-04-26T02:16:59;101591.88;;;3.89;85.54
4972;BME280;2501;51.214;6.768;2023-04-26T02:19:28;101593.56;;;3.89;86.00
4972;BME280;2501;51.214;6.768;2023-04-26T02:21:57;101596.03;;;3.85;86.35
4972;BME280;2501;51.214;6.768;2023-04-26T02:24:25;101608.03;;;3.83;86.72
4972;BME280;2501;51.214;6.768;2023-04-26T02:26:54;101603.81;;;3.85;87.24
4972;BME280;2501;51.214;6.768;2023-04-26T02:29:27;101596.09;;;3.87;87.40
4972;BME280;2501;51.214;6.768;2023-04-26T02:31:59;101600.75;;;3.94;87.85
4972;BME280;2501;51.214;6.768;2023-04-26T02:34:28;101595.97;;;4.03;87.64
4972;BME280;2501;51.214;6.768;2023-04-26T02:36:57;101596.06;;;4.05;87.03
4972;BME280;2501;51.214;6.768;2023-04-26T02:39:26;101596.34;;;3.74;87.74
4972;BME280;2501;51.214;6.768;2023-04-26T02:41:54;101596.81;;;3.47;88.50
4972;BME280;2501;51.214;6.768;2023-04-26T02:44:22;101589.38;;;4.10;87.66
4972;BME280;2501;51.214;6.768;2023-04-26T02:46:51;101592.22;;;4.16;86.47
4972;BME280;2501;51.214;6.768;2023-04-26T02:49:22;101595.00;;;4.01;86.16
4972;BME280;2501;51.214;6.768;2023-04-26T02:51:50;101591.06;;;3.90;86.20
4972;BME280;2501;51.214;6.768;2023-04-26T02:54:19;101587.34;;;3.85;85.91
4972;BME280;2501;51.214;6.768;2023-04-26T02:56:47;101595.81;;;3.81;86.22
4972;BME280;2501;51.214;6.768;2023-04-26T02:59:16;101598.34;;;3.79;86.19
4972;BME280;2501;51.214;6.768;2023-04-26T03:01:44;101588.88;;;3.80;86.78
4972;BME280;2501;51.214;6.768;2023-04-26T03:04:12;101589.53;;;3.76;86.74
4972;BME280;2501;51.214;6.768;2023-04-26T03:06:44;101590.28;;;3.73;86.93
4972;BME280;2501;51.214;6.768;2023-04-26T03:09:12;101587.19;;;3.63;87.26
4972;BME280;2501;51.214;6.768;2023-04-26T03:11:41;101594.75;;;3.58;87.89
4972;BME280;2501;51.214;6.768;2023-04-26T03:14:09;101590.16;;;3.53;87.77
4972;BME280;2501;51.214;6.768;2023-04-26T03:16:40;101582.13;;;3.48;87.87
4972;BME280;2501;51.214;6.768;2023-04-26T03:19:09;101588.13;;;3.47;88.31
4972;BME280;2501;51.214;6.768;2023-04-26T03:21:38;101579.47;;;3.46;88.58
4972;BME280;2501;51.214;6.768;2023-04-26T03:24:09;101578.66;;;3.47;88.62
4972;BME280;2501;51.214;6.768;2023-04-26T03:26:37;101576.75;;;3.43;88.71
4972;BME280;2501;51.214;6.768;2023-04-26T03:29:06;101571.75;;;3.48;88.58
4972;BME280;2501;51.214;6.768;2023-04-26T03:31:34;101570.84;;;3.46;89.05
4972;BME280;2501;51.214;6.768;2023-04-26T03:34:03;101576.75;;;3.43;89.28
4972;BME280;2501;51.214;6.768;2023-04-26T03:36:32;101572.53;;;3.45;89.63
4972;BME280;2501;51.214;6.768;2023-04-26T03:39:00;101569.06;;;3.45;90.13
4972;BME280;2501;51.214;6.768;2023-04-26T03:41:32;101574.44;;;3.49;90.52
4972;BME280;2501;51.214;6.768;2023-04-26T03:44:04;101578.72;;;3.49;90.75
4972;BME280;2501;51.214;6.768;2023-04-26T03:46:32;101566.28;;;3.60;90.93
4972;BME280;2501;51.214;6.768;2023-04-26T03:49:00;101565.97;;;3.54;90.89
4972;BME280;2501;51.214;6.768;2023-04-26T03:51:29;101572.81;;;3.52;90.94
4972;BME280;2501;51.214;6.768;2023-04-26T03:53:57;101577.56;;;3.42;91.54
4972;BME280;2501;51.214;6.768;2023-04-26T03:56:26;101574.91;;;3.41;91.54
4972;BME280;2501;51.214;6.768;2023-04-26T03:58:57;101574.81;;;3.39;91.45
4972;BME280;2501;51.214;6.768;2023-04-26T04:01:25;101571.56;;;3.43;91.61
4972;BME280;2501;51.214;6.768;2023-04-26T04:03:54;101570.38;;;3.37;91.38
4972;BME280;2501;51.214;6.768;2023-04-26T04:06:22;101586.75;;;3.36;91.67
4972;BME280;2501;51.214;6.768;2023-04-26T04:08:50;101578.00;;;3.34;91.54
4972;BME280;2501;51.214;6.768;2023-04-26T04:11:20;101587.41;;;3.32;90.95
4972;BME280;2501;51.214;6.768;2023-04-26T04:13:48;101583.13;;;3.32;90.90
4972;BME280;2501;51.214;6.768;2023-04-26T04:16:19;101584.06;;;3.34;90.96
4972;BME280;2501;51.214;6.768;2023-04-26T04:18:47;101580.53;;;3.32;91.12
4972;BME280;2501;51.214;6.768;2023-04-26T04:21:16;101581.78;;;3.40;90.85
4972;BME280;2501;51.214;6.768;2023-04-26T04:23:45;101577.56;;;3.42;90.98
4972;BME280;2501;51.214;6.768;2023-04-26T04:26:14;101593.84;;;3.58;90.72
4972;BME280;2501;51.214;6.768;2023-04-26T04:28:43;101598.56;;;3.66;90.75
4972;BME280;2501;51.214;6.768;2023-04-26T04:31:13;101599.72;;;3.18;91.17
4972;BME280;2501;51.214;6.768;2023-04-26T04:33:44;101606.31;;;3.11;91.63
4972;BME280;2501;51.214;6.768;2023-04-26T04:36:13;101602.28;;;3.18;92.01
4972;BME280;2501;51.214;6.768;2023-04-26T04:38:43;101613.56;;;3.19;92.10
4972;BME280;2501;51.214;6.768;2023-04-26T04:41:12;101603.41;;;3.23;92.23
4972;BME280;2501;51.214;6.768;2023-04-26T04:43:41;101602.69;;;3.26;91.96
4972;BME280;2501;51.214;6.768;2023-04-26T04:46:10;101606.09;;;3.25;91.95
4972;BME280;2501;51.214;6.768;2023-04-26T04:48:38;101611.34;;;3.26;91.59
4972;BME280;2501;51.214;6.768;2023-04-26T04:51:09;101609.66;;;3.27;91.56
4972;BME280;2501;51.214;6.768;2023-04-26T04:53:37;101608.38;;;3.19;92.11
4972;BME280;2501;51.214;6.768;2023-04-26T04:56:06;101607.25;;;3.13;92.63
4972;BME280;2501;51.214;6.768;2023-04-26T04:58:34;101602.84;;;3.11;92.99
4972;BME280;2501;51.214;6.768;2023-04-26T05:01:03;101604.53;;;3.10;93.72
4972;BME280;2501;51.214;6.768;2023-04-26T05:03:31;101610.38;;;3.06;94.14
4972;BME280;2501;51.214;6.768;2023-04-26T05:06:00;101612.22;;;3.09;94.49
4972;BME280;2501;51.214;6.768;2023-04-26T05:08:32;101618.59;;;3.15;94.49
4972;BME280;2501;51.214;6.768;2023-04-26T05:11:01;101626.09;;;3.27;94.48
4972;BME280;2501;51.214;6.768;2023-04-26T05:13:29;101625.63;;;3.36;94.40
4972;BME280;2501;51.214;6.768;2023-04-26T05:15:58;101625.78;;;3.74;92.25
4972;BME280;2501;51.214;6.768;2023-04-26T05:18:26;101629.25;;;3.75;90.41
4972;BME280;2501;51.214;6.768;2023-04-26T05:20:56;101624.50;;;3.84;89.79
4972;BME280;2501;51.214;6.768;2023-04-26T05:23:24;101629.91;;;3.89;89.44
4972;BME280;2501;51.214;6.768;2023-04-26T05:25:55;101634.13;;;3.87;88.85
4972;BME280;2501;51.214;6.768;2023-04-26T05:28:24;101631.47;;;3.85;88.21
4972;BME280;2501;51.214;6.768;2023-04-26T05:30:53;101638.66;;;3.91;87.89
4972;BME280;2501;51.214;6.768;2023-04-26T05:33:21;101629.44;;;4.16;87.55
4972;BME280;2501;51.214;6.768;2023-04-26T05:35:50;101634.91;;;4.03;87.47
4972;BME280;2501;51.214;6.768;2023-04-26T05:38:21;101642.31;;;4.13;86.95
4972;BME280;2501;51.214;6.768;2023-04-26T05:40:50;101646.56;;;4.11;86.84
4972;BME280;2501;51.214;6.768;2023-04-26T05:43:21;101634.06;;;4.22;86.57
4972;BME280;2501;51.214;6.768;2023-04-26T05:45:50;101636.50;;;4.19;86.57
4972;BME280;2501;51.214;6.768;2023-04-26T05:48:20;101645.66;;;4.11;87.03
4972;BME280;2501;51.214;6.768;2023-04-26T05:50:49;101647.22;;;4.07;87.21
4972;BME280;2501;51.214;6.768;2023-04-26T05:53:18;101652.41;;;4.07;87.47
4972;BME280;2501;51.214;6.768;2023-04-26T05:55:46;101650.22;;;4.16;87.20
4972;BME280;2501;51.214;6.768;2023-04-26T05:58:15;101655.38;;;4.15;87.10
4972;BME280;2501;51.214;6.768;2023-04-26T06:00:46;101654.59;;;4.17;87.11
4972;BME280;2501;51.214;6.768;2023-04-26T06:03:15;101652.13;;;4.98;85.53
4972;BME280;2501;51.214;6.768;2023-04-26T06:05:43;101653.16;;;5.01;83.02
4972;BME280;2501;51.214;6.768;2023-04-26T06:08:12;101652.53;;;4.87;82.27
4972;BME280;2501;51.214;6.768;2023-04-26T06:10:40;101649.13;;;4.88;81.52
4972;BME280;2501;51.214;6.768;2023-04-26T06:13:09;101657.91;;;5.11;80.44
4972;BME280;2501;51.214;6.768;2023-04-26T06:15:37;101657.94;;;5.32;78.86
4972;BME280;2501;51.214;6.768;2023-04-26T06:18:09;101657.59;;;5.45;78.64
4972;BME280;2501;51.214;6.768;2023-04-26T06:20:37;101660.94;;;5.22;78.58
4972;BME280;2501;51.214;6.768;2023-04-26T06:23:05;101654.69;;;5.17;79.18
4972;BME280;2501;51.214;6.768;2023-04-26T06:25:34;101664.69;;;5.70;77.55
4972;BME280;2501;51.214;6.768;2023-04-26T06:28:02;101665.81;;;5.98;77.29
4972;BME280;2501;51.214;6.768;2023-04-26T07:02:34;101662.75;;;5.87;71.79
4972;BME280;2501;51.214;6.768;2023-04-26T07:05:03;101663.50;;;6.05;71.51
4972;BME280;2501;51.214;6.768;2023-04-26T07:07:34;101670.47;;;6.28;71.74
4972;BME280;2501;51.214;6.768;2023-04-26T07:10:03;101669.69;;;6.09;71.06
4972;BME280;2501;51.214;6.768;2023-04-26T07:12:32;101667.97;;;6.09;70.55
4972;BME280;2501;51.214;6.768;2023-04-26T07:15:02;101673.06;;;6.06;71.10
4972;BME280;2501;51.214;6.768;2023-04-26T07:17:33;101663.25;;;6.21;71.30
4972;BME280;2501;51.214;6.768;2023-04-26T07:20:02;101663.84;;;6.37;71.11
4972;BME280;2501;51.214;6.768;2023-04-26T07:22:31;101666.25;;;6.32;71.19
4972;BME280;2501;51.214;6.768;2023-04-26T07:24:59;101666.59;;;6.41;70.06
4972;BME280;2501;51.214;6.768;2023-04-26T07:27:29;101669.06;;;6.84;69.22
4972;BME280;2501;51.214;6.768;2023-04-26T07:29:58;101663.13;;;6.88;67.98
4972;BME280;2501;51.214;6.768;2023-04-26T07:32:26;101664.88;;;7.15;67.18
4972;BME280;2501;51.214;6.768;2023-04-26T07:34:57;101660.91;;;6.75;66.88
4972;BME280;2501;51.214;6.768;2023-04-26T07:37:26;101662.22;;;6.88;65.41
4972;BME280;2501;51.214;6.768;2023-04-26T07:39:54;101672.19;;;6.99;65.59
4972;BME280;2501;51.214;6.768;2023-04-26T07:42:22;101671.66;;;6.84;64.62
4972;BME280;2501;51.214;6.768;2023-04-26T07:44:51;101672.03;;;6.95;65.43
4972;BME280;2501;51.214;6.768;2023-04-26T07:47:19;101668.16;;;7.08;65.13
4972;BME280;2501;51.214;6.768;2023-04-26T07:49:52;101668.88;;;6.80;64.54
4972;BME280;2501;51.214;6.768;2023-04-26T07:52:23;101659.41;;;7.32;63.24
4972;BME280;2501;51.214;6.768;2023-04-26T07:54:51;101663.78;;;7.33;62.29
4972;BME280;2501;51.214;6.768;2023-04-26T07:57:20;101656.47;;;7.49;62.15
4972;BME280;2501;51.214;6.768;2023-04-26T07:59:48;101664.13;;;7.17;63.72
4972;BME280;2501;51.214;6.768;2023-04-26T08:02:17;101663.22;;;6.91;61.99
4972;BME280;2501;51.214;6.768;2023-04-26T08:04:49;101662.88;;;7.06;62.82
4972;BME280;2501;51.214;6.768;2023-04-26T08:07:20;101656.03;;;7.35;63.16
4972;BME280;2501;51.214;6.768;2023-04-26T08:09:51;101659.16;;;7.25;62.70
4972;BME280;2501;51.214;6.768;2023-04-26T08:12:19;101657.66;;;7.06;62.00
4972;BME280;2501;51.214;6.768;2023-04-26T08:14:48;101661.69;;;7.49;60.72
4972;BME280;2501;51.214;6.768;2023-04-26T08:17:16;101653.31;;;7.32;59.83
4972;BME280;2501;51.214;6.768;2023-04-26T08:19:45;101659.06;;;7.22;60.99
4972;BME280;2501;51.214;6.768;2023-04-26T08:22:14;101666.66;;;7.16;60.97
4972;BME280;2501;51.214;6.768;2023-04-26T08:24:46;101660.13;;;7.28;60.77
4972;BME280;2501;51.214;6.768;2023-04-26T08:27:18;101658.63;;;7.35;60.36
4972;BME280;2501;51.214;6.768;2023-04-26T08:29:46;101645.09;;;8.02;59.10
4972;BME280;2501;51.214;6.768;2023-04-26T08:32:15;101650.41;;;8.62;56.88
4972;BME280;2501;51.214;6.768;2023-04-26T08:34:43;101655.81;;;7.83;55.99
4972;BME280;2501;51.214;6.768;2023-04-26T08:37:13;101652.84;;;7.71;57.70
4972;BME280;2501;51.214;6.768;2023-04-26T08:39:41;101647.03;;;8.08;57.34
4972;BME280;2501;51.214;6.768;2023-04-26T08:42:13;101653.72;;;8.28;56.71
4972;BME280;2501;51.214;6.768;2023-04-26T08:44:45;101656.22;;;7.68;57.95
4972;BME280;2501;51.214;6.768;2023-04-26T08:47:17;101644.84;;;8.81;56.69
4972;BME280;2501;51.214;6.768;2023-04-26T08:49:46;101667.91;;;7.52;59.46
4972;BME280;2501;51.214;6.768;2023-04-26T08:52:26;101653.31;;;8.14;58.18
4972;BME280;2501;51.214;6.768;2023-04-26T08:54:56;101656.00;;;8.17;57.34
4972;BME280;2501;51.214;6.768;2023-04-26T08:57:25;101661.03;;;8.99;52.60
4972;BME280;2501;51.214;6.768;2023-04-26T08:59:57;101654.69;;;8.91;51.20
4972;BME280;2501;51.214;6.768;2023-04-26T09:02:25;101647.44;;;9.49;48.79
4972;BME280;2501;51.214;6.768;2023-04-26T09:04:54;101649.03;;;8.76;50.02
4972;BME280;2501;51.214;6.768;2023-04-26T09:07:28;101660.47;;;8.80;51.28
4972;BME280;2501;51.214;6.768;2023-04-26T09:09:58;101658.59;;;8.44;52.26
4972;BME280;2501;51.214;6.768;2023-04-26T09:12:28;101660.19;;;8.11;53.74
4972;BME280;2501;51.214;6.768;2023-04-26T09:14:59;101654.97;;;8.39;53.99
4972;BME280;2501;51.214;6.768;2023-04-26T09:17:32;101660.00;;;8.04;53.75
4972;BME280;2501;51.214;6.768;2023-04-26T09:20:16;101663.69;;;8.40;53.19
4972;BME280;2501;51.214;6.768;2023-04-26T09:22:46;101658.56;;;8.43;52.75
4972;BME280;2501;51.214;6.768;2023-04-26T09:25:18;101653.66;;;8.55;52.58
4972;BME280;2501;51.214;6.768;2023-04-26T09:27:47;101650.44;;;8.63;51.92
4972;BME280;2501;51.214;6.768;2023-04-26T09:30:18;101648.13;;;10.15;49.79
4972;BME280;2501;51.214;6.768;2023-04-26T09:32:49;101642.38;;;10.31;48.18
4972;BME280;2501;51.214;6.768;2023-04-26T09:35:27;101641.81;;;10.46;47.45
4972;BME280;2501;51.214;6.768;2023-04-26T09:37:57;101632.66;;;9.51;48.96
4972;BME280;2501;51.214;6.768;2023-04-26T09:40:27;101637.69;;;9.43;49.96
4972;BME280;2501;51.214;6.768;2023-04-26T09:43:01;101631.19;;;10.38;47.66
4972;BME280;2501;51.214;6.768;2023-04-26T09:45:42;101634.59;;;9.59;50.16
4972;BME280;2501;51.214;6.768;2023-04-26T09:48:15;101626.81;;;10.00;49.02
4972;BME280;2501;51.214;6.768;2023-04-26T09:50:47;101624.63;;;9.81;49.40
4972;BME280;2501;51.214;6.768;2023-04-26T09:53:29;101631.53;;;8.73;51.38
4972;BME280;2501;51.214;6.768;2023-04-26T09:56:05;101625.88;;;9.24;51.79
4972;BME280;2501;51.214;6.768;2023-04-26T09:58:36;101619.03;;;9.29;51.55
4972;BME280;2501;51.214;6.768;2023-04-26T10:01:09;101621.38;;;10.30;50.03
4972;BME280;2501;51.214;6.768;2023-04-26T10:03:39;101623.63;;;9.75;50.14
4972;BME280;2501;51.214;6.768;2023-04-26T10:06:08;101610.72;;;9.83;49.04
4972;BME280;2501;51.214;6.768;2023-04-26T10:08:37;101614.28;;;10.26;47.25
4972;BME280;2501;51.214;6.768;2023-04-26T10:11:06;101611.69;;;9.88;47.41
4972;BME280;2501;51.214;6.768;2023-04-26T10:13:36;101616.84;;;9.46;49.50
4972;BME280;2501;51.214;6.768;2023-04-26T10:16:08;101622.00;;;9.43;49.42
4972;BME280;2501;51.214;6.768;2023-04-26T10:18:37;101625.41;;;9.06;49.88
4972;BME280;2501;51.214;6.768;2023-04-26T10:21:08;101621.28;;;9.14;50.11
4972;BME280;2501;51.214;6.768;2023-04-26T10:23:39;101629.78;;;9.40;49.52
4972;BME280;2501;51.214;6.768;2023-04-26T10:26:47;101620.94;;;9.36;48.97
4972;BME280;2501;51.214;6.768;2023-04-26T10:29:17;101616.50;;;9.70;48.68
4972;BME280;2501;51.214;6.768;2023-04-26T10:32:08;101613.19;;;9.77;47.78
4972;BME280;2501;51.214;6.768;2023-04-26T10:34:41;101619.53;;;9.15;49.60
4972;BME280;2501;51.214;6.768;2023-04-26T10:37:10;101623.91;;;8.81;50.26
4972;BME280;2501;51.214;6.768;2023-04-26T10:39:40;101629.13;;;9.14;50.79
4972;BME280;2501;51.214;6.768;2023-04-26T10:42:24;101623.34;;;8.93;51.14
4972;BME280;2501;51.214;6.768;2023-04-26T10:44:55;101626.34;;;9.08;51.07
4972;BME280;2501;51.214;6.768;2023-04-26T10:47:29;101625.03;;;8.91;51.74
4972;BME280;2501;51.214;6.768;2023-04-26T10:50:02;101617.06;;;9.21;50.60
4972;BME280;2501;51.214;6.768;2023-04-26T10:52:32;101619.09;;;9.31;49.11
4972;BME280;2501;51.214;6.768;2023-04-26T10:55:01;101608.69;;;9.34;48.30
4972;BME280;2501;51.214;6.768;2023-04-26T10:57:47;101600.03;;;9.74;47.57
4972;BME280;2501;51.214;6.768;2023-04-26T11:00:17;101595.69;;;9.76;46.96
4972;BME280;2501;51.214;6.768;2023-04-26T11:02:52;101600.75;;;9.31;47.82
4972;BME280;2501;51.214;6.768;2023-04-26T11:05:37;101595.09;;;9.88;46.83
4972;BME280;2501;51.214;6.768;2023-04-26T11:08:07;101605.75;;;9.95;46.97
4972;BME280;2501;51.214;6.768;2023-04-26T11:10:44;101605.50;;;10.24;46.76
4972;BME280;2501;51.214;6.768;2023-04-26T11:13:13;101604.81;;;10.32;46.15
4972;BME280;2501;51.214;6.768;2023-04-26T11:15:42;101599.88;;;9.66;45.81
4972;BME280;2501;51.214;6.768;2023-04-26T11:18:13;101592.03;;;9.30;48.65
4972;BME280;2501;51.214;6.768;2023-04-26T11:20:45;101590.16;;;10.42;46.88
4972;BME280;2501;51.214;6.768;2023-04-26T11:23:14;101595.47;;;10.06;45.98
4972;BME280;2501;51.214;6.768;2023-04-26T11:25:45;101597.59;;;10.64;46.02
4972;BME280;2501;51.214;6.768;2023-04-26T11:28:14;101589.59;;;10.58;45.84
4972;BME280;2501;51.214;6.768;2023-04-26T11:30:42;101588.22;;;9.93;45.89
4972;BME280;2501;51.214;6.768;2023-04-26T11:33:19;101590.69;;;10.69;44.55
4972;BME280;2501;51.214;6.768;2023-04-26T11:35:48;101584.31;;;10.55;44.85
4972;BME280;2501;51.214;6.768;2023-04-26T11:38:16;101582.19;;;11.34;41.97
4972;BME280;2501;51.214;6.768;2023-04-26T11:43:33;101578.25;;;10.59;42.49
4972;BME280;2501;51.214;6.768;2023-04-26T11:46:02;101574.75;;;9.76;44.60
4972;BME280;2501;51.214;6.768;2023-04-26T11:48:35;101578.25;;;10.17;43.62
4972;BME280;2501;51.214;6.768;2023-04-26T11:51:04;101570.94;;;10.01;42.97
4972;BME280;2501;51.214;6.768;2023-04-26T11:53:34;101569.13;;;10.39;42.65
4972;BME280;2501;51.214;6.768;2023-04-26T11:56:04;101575.47;;;10.09;45.38
4972;BME280;2501;51.214;6.768;2023-04-26T11:58:32;101569.63;;;9.81;46.39
4972;BME280;2501;51.214;6.768;2023-04-26T12:01:01;101571.88;;;9.64;47.11
4972;BME280;2501;51.214;6.768;2023-04-26T12:03:34;101571.50;;;9.86;45.20
4972;BME280;2501;51.214;6.768;2023-04-26T12:06:03;101580.88;;;9.76;45.66
4972;BME280;2501;51.214;6.768;2023-04-26T12:08:32;101576.59;;;9.80;45.58
4972;BME280;2501;51.214;6.768;2023-04-26T12:11:01;101575.31;;;10.02;45.52
4972;BME280;2501;51.214;6.768;2023-04-26T12:13:30;101580.75;;;10.11;45.83
4972;BME280;2501;51.214;6.768;2023-04-26T12:15:59;101579.81;;;10.09;44.32
4972;BME280;2501;51.214;6.768;2023-04-26T12:18:33;101575.50;;;10.52;43.75
4972;BME280;2501;51.214;6.768;2023-04-26T12:21:01;101574.41;;;10.42;42.19
4972;BME280;2501;51.214;6.768;2023-04-26T12:23:36;101575.38;;;10.03;42.40
4972;BME280;2501;51.214;6.768;2023-04-26T12:26:05;101569.75;;;10.27;42.13
4972;BME280;2501;51.214;6.768;2023-04-26T12:28:36;101578.22;;;10.58;41.78
4972;BME280;2501;51.214;6.768;2023-04-26T12:31:06;101572.53;;;10.81;41.67
4972;BME280;2501;51.214;6.768;2023-04-26T12:33:37;101571.94;;;10.50;41.16
4972;BME280;2501;51.214;6.768;2023-04-26T12:36:07;101556.31;;;11.61;40.26
4972;BME280;2501;51.214;6.768;2023-04-26T12:38:36;101557.81;;;12.03;38.14
4972;BME280;2501;51.214;6.768;2023-04-26T12:41:05;101568.25;;;10.40;40.50
4972;BME280;2501;51.214;6.768;2023-04-26T12:43:33;101557.97;;;11.53;39.61
4972;BME280;2501;51.214;6.768;2023-04-26T12:46:02;101569.47;;;10.56;40.40
4972;BME280;2501;51.214;6.768;2023-04-26T12:48:30;101560.97;;;11.20;40.02
4972;BME280;2501;51.214;6.768;2023-04-26T12:51:02;101565.34;;;11.21;40.24
4972;BME280;2501;51.214;6.768;2023-04-26T12:53:31;101560.41;;;10.87;40.18
4972;BME280;2501;51.214;6.768;2023-04-26T12:55:59;101566.28;;;10.75;41.25
4972;BME280;2501;51.214;6.768;2023-04-26T12:58:28;101560.41;;;10.87;40.62
4972;BME280;2501;51.214;6.768;2023-04-26T13:00:57;101562.22;;;10.91;40.47
4972;BME280;2501;51.214;6.768;2023-04-26T13:03:25;101560.28;;;11.33;39.89
4972;BME280;2501;51.214;6.768;2023-04-26T13:05:53;101556.69;;;11.28;40.32
4972;BME280;2501;51.214;6.768;2023-04-26T13:08:25;101567.06;;;10.68;41.54
4972;BME280;2501;51.214;6.768;2023-04-26T13:10:53;101555.44;;;11.03;40.93
4972;BME280;2501;51.214;6.768;2023-04-26T13:13:22;101569.50;;;10.59;41.38
4972;BME280;2501;51.214;6.768;2023-04-26T13:15:50;101564.78;;;11.40;40.14
4972;BME280;2501;51.214;6.768;2023-04-26T13:18:19;101581.22;;;10.77;40.91
4972;BME280;2501;51.214;6.768;2023-04-26T13:20:48;101577.56;;;11.19;39.58
4972;BME280;2501;51.214;6.768;2023-04-26T13:23:16;101571.53;;;11.26;39.95
4972;BME280;2501;51.214;6.768;2023-04-26T13:25:47;101561.22;;;12.71;37.39
4972;BME280;2501;51.214;6.768;2023-04-26T13:28:16;101555.84;;;11.87;37.10
4972;BME280;2501;51.214;6.768;2023-04-26T13:30:44;101542.16;;;14.42;33.28
4972;BME280;2501;51.214;6.768;2023-04-26T13:33:13;101537.50;;;13.80;33.65
4972;BME280;2501;51.214;6.768;2023-04-26T13:35:41;101543.09;;;14.73;33.00
4972;BME280;2501;51.214;6.768;2023-04-26T13:38:10;101539.56;;;14.47;33.23
4972;BME280;2501;51.214;6.768;2023-04-26T13:40:39;101529.03;;;15.58;31.79
4972;BME280;2501;51.214;6.768;2023-04-26T13:43:10;101531.38;;;13.87;31.89
4972;BME280;2501;51.214;6.768;2023-04-26T13:45:38;101536.13;;;13.08;35.45
4972;BME280;2501;51.214;6.768;2023-04-26T13:48:07;101535.66;;;13.64;34.50
4972;BME280;2501;51.214;6.768;2023-04-26T13:50:35;101524.63;;;14.93;32.05
4972;BME280;2501;51.214;6.768;2023-04-26T13:53:04;101529.75;;;14.20;33.36
4972;BME280;2501;51.214;6.768;2023-04-26T13:55:32;101535.81;;;12.75;34.71
4972;BME280;2501;51.214;6.768;2023-04-26T13:58:01;101530.47;;;13.79;33.71
4972;BME280;2501;51.214;6.768;2023-04-26T14:00:32;101533.19;;;13.96;33.82
4972;BME280;2501;51.214;6.768;2023-04-26T14:03:01;101529.81;;;12.91;35.19
4972;BME280;2501;51.214;6.768;2023-04-26T14:05:29;101535.56;;;13.49;34.58
4972;BME280;2501;51.214;6.768;2023-04-26T14:07:58;101534.78;;;13.68;34.95